Time;durP1;ratioP1;P1;durP2;ratioP2;P2;SDS_P1;SDS_P2;PMS_P1;PMS_P2;Temp;Humidity;BMP_temperature;BMP_pressure;BME280_temperature;BME280_humidity;BME280_pressure;Samples;Min_cycle;Max_cycle;Signal;HPM_P1;HPM_P2
2021/08/23 00:02:57;;;;;;;7.90;7.10;;;;;;;18.53;67.74;100200.73;137363;1193;109519;-74
2021/08/23 00:06:02;;;;;;;8.50;7.20;;;;;;;18.50;67.90;100198.83;137340;1195;95027;-75
2021/08/23 00:09:08;;;;;;;9.60;7.50;;;;;;;18.43;68.06;100199.65;137406;1202;95586;-73
2021/08/23 00:12:13;;;;;;;9.20;7.00;;;;;;;18.34;68.13;100206.59;137295;1202;108674;-72
2021/08/23 00:15:19;;;;;;;6.80;5.70;;;;;;;18.33;68.44;100218.00;137336;1202;95886;-73
2021/08/23 00:18:25;;;;;;;7.30;6.50;;;;;;;18.35;68.54;100213.95;137363;1202;109357;-73
2021/08/23 00:21:40;;;;;;;8.80;6.60;;;;;;;18.34;68.52;100207.58;137376;1201;94979;-72
2021/08/23 00:24:46;;;;;;;9.80;7.50;;;;;;;18.32;68.57;100207.58;137335;1195;95084;-72
2021/08/23 00:27:52;;;;;;;8.50;7.20;;;;;;;18.30;68.69;100206.31;137397;1202;107478;-72
2021/08/23 00:30:58;;;;;;;8.20;7.20;;;;;;;18.29;68.82;100200.12;137318;1195;95084;-72
2021/08/23 00:34:03;;;;;;;8.30;6.80;;;;;;;18.23;69.06;100199.08;137335;1201;108023;-74
2021/08/23 00:37:09;;;;;;;7.00;6.20;;;;;;;18.19;69.21;100199.78;137368;1201;95882;-74
2021/08/23 00:40:15;;;;;;;7.30;6.20;;;;;;;18.17;69.44;100206.72;137362;1202;95905;-73
2021/08/23 00:43:21;;;;;;;7.90;6.50;;;;;;;18.18;69.47;100202.52;137394;1201;108853;-73
2021/08/23 00:46:26;;;;;;;8.20;7.10;;;;;;;18.17;69.42;100201.65;137380;1194;94953;-72
2021/08/23 00:49:32;;;;;;;8.20;7.40;;;;;;;18.14;69.50;100206.04;137309;1202;109403;-74
2021/08/23 00:52:37;;;;;;;8.30;7.40;;;;;;;18.12;69.49;100205.98;137349;1202;95002;-72
2021/08/23 00:55:43;;;;;;;7.20;6.20;;;;;;;18.11;69.63;100203.12;137380;1202;95883;-71
2021/08/23 00:58:50;;;;;;;7.60;5.70;;;;;;;18.10;69.64;100204.79;137314;1202;107512;-73
2021/08/23 01:02:00;;;;;;;7.40;6.70;;;;;;;18.12;69.72;100204.95;137387;1201;94980;-73
2021/08/23 01:05:13;;;;;;;8.00;7.00;;;;;;;18.12;69.52;100212.30;137327;1202;109592;-74
2021/08/23 01:08:30;;;;;;;9.90;7.10;;;;;;;18.11;69.58;100220.86;137375;1202;95882;-72
2021/08/23 01:11:41;;;;;;;8.40;7.20;;;;;;;18.11;69.70;100218.88;137369;1202;95911;-71
2021/08/23 01:14:47;;;;;;;9.10;7.00;;;;;;;18.11;69.61;100212.30;137343;1202;108105;-71
2021/08/23 01:17:53;;;;;;;7.70;6.00;;;;;;;18.08;69.58;100207.18;137364;1202;96305;-71
2021/08/23 01:21:00;;;;;;;6.70;5.90;;;;;;;18.09;69.62;100215.41;137345;1202;110836;-71
2021/08/23 01:24:09;;;;;;;8.20;5.90;;;;;;;18.11;69.61;100217.95;137434;1202;97695;-72
2021/08/23 01:27:16;;;;;;;7.30;6.60;;;;;;;18.13;69.67;100214.35;137380;1201;97238;-72
2021/08/23 01:30:23;;;;;;;7.50;6.30;;;;;;;18.13;69.65;100214.27;137375;1201;106471;-71
2021/08/23 01:33:28;;;;;;;8.10;6.90;;;;;;;18.13;69.60;100214.54;137389;1202;97752;-71
2021/08/23 01:36:35;;;;;;;7.30;6.60;;;;;;;18.10;69.75;100217.73;137320;1202;110793;-71
2021/08/23 01:39:42;;;;;;;8.80;6.90;;;;;;;18.05;69.71;100217.69;137352;1203;96406;-71
2021/08/23 01:42:47;;;;;;;7.10;5.80;;;;;;;17.99;69.63;100221.90;137351;1202;97028;-73
2021/08/23 01:45:53;;;;;;;6.20;5.50;;;;;;;17.97;69.76;100224.98;137307;1202;108529;-74
2021/08/23 01:48:59;;;;;;;7.60;6.20;;;;;;;17.98;69.55;100220.15;137375;1202;97653;-73
2021/08/23 01:52:05;;;;;;;7.40;6.40;;;;;;;17.99;69.76;100215.05;137351;1203;110603;-72
2021/08/23 01:55:11;;;;;;;7.50;6.40;;;;;;;18.00;69.65;100207.90;137328;1202;97268;-73
2021/08/23 01:58:16;;;;;;;8.30;6.90;;;;;;;18.00;69.71;100199.94;137342;1201;97247;-73
2021/08/23 02:01:22;;;;;;;6.80;6.10;;;;;;;17.97;69.63;100193.11;137304;1202;108449;-72
2021/08/23 02:04:28;;;;;;;8.20;6.60;;;;;;;17.95;69.66;100198.00;137343;1202;97012;-71
2021/08/23 02:07:33;;;;;;;7.60;6.00;;;;;;;17.91;69.75;100207.09;137326;1202;110933;-74
2021/08/23 02:10:39;;;;;;;7.80;5.90;;;;;;;17.88;69.75;100207.58;137337;1202;96337;-75
2021/08/23 02:13:45;;;;;;;6.60;5.70;;;;;;;17.86;69.85;100208.52;137391;1202;97235;-73
2021/08/23 02:16:50;;;;;;;7.00;5.80;;;;;;;17.87;69.79;100212.55;137321;1202;107403;-72
2021/08/23 02:19:56;;;;;;;6.90;6.20;;;;;;;17.89;69.80;100208.13;137329;1202;97263;-72
2021/08/23 02:23:01;;;;;;;6.60;6.00;;;;;;;17.90;69.78;100201.69;137328;1201;110727;-72
2021/08/23 02:26:07;;;;;;;6.70;6.00;;;;;;;17.88;69.73;100193.70;137358;1202;96405;-70
2021/08/23 02:29:12;;;;;;;7.30;6.10;;;;;;;17.82;69.81;100183.45;137381;1202;96301;-70
2021/08/23 02:32:18;;;;;;;7.00;5.50;;;;;;;17.75;69.86;100172.33;137170;1201;108672;-70
2021/08/23 02:35:23;;;;;;;7.60;5.30;;;;;;;17.71;69.91;100164.73;137346;1202;97255;-71
2021/08/23 02:38:29;;;;;;;6.20;5.50;;;;;;;17.68;69.93;100164.70;137327;1202;110937;-74
2021/08/23 02:41:34;;;;;;;9.60;6.30;;;;;;;17.68;69.91;100160.21;137354;1202;97678;-75
2021/08/23 02:44:40;;;;;;;6.40;5.40;;;;;;;17.69;69.84;100151.13;137387;1202;97653;-73
2021/08/23 02:47:45;;;;;;;6.40;5.50;;;;;;;17.67;69.88;100144.90;137303;1202;108568;-73
2021/08/23 02:50:50;;;;;;;7.30;5.50;;;;;;;17.63;69.79;100145.76;137369;1202;97277;-72
2021/08/23 02:53:56;;;;;;;6.50;5.50;;;;;;;17.59;69.92;100141.55;137340;1202;110661;-70
2021/08/23 02:57:01;;;;;;;6.40;4.90;;;;;;;17.55;69.88;100138.99;137315;1201;97656;-70
2021/08/23 03:00:10;;;;;;;7.40;4.70;;;;;;;17.52;69.91;100143.30;137200;1202;96358;-70
2021/08/23 03:03:15;;;;;;;6.60;5.20;;;;;;;17.51;69.94;100153.42;137321;1202;108605;-70
2021/08/23 03:06:21;;;;;;;7.60;5.10;;;;;;;17.51;69.86;100161.44;137239;1202;97657;-73
2021/08/23 03:09:26;;;;;;;6.20;5.40;;;;;;;17.50;69.93;100172.15;137336;1195;110779;-75
2021/08/23 03:12:31;;;;;;;7.50;5.30;;;;;;;17.50;69.96;100176.64;137344;1195;97643;-70
2021/08/23 03:15:37;;;;;;;7.20;6.10;;;;;;;17.49;69.91;100188.45;137371;1201;97609;-70
2021/08/23 03:18:43;;;;;;;7.20;5.50;;;;;;;17.48;69.94;100197.09;137335;1202;108751;-71
2021/08/23 03:21:49;;;;;;;6.00;5.10;;;;;;;17.44;69.97;100197.23;137340;1202;96349;-76
2021/08/23 03:24:55;;;;;;;8.10;5.00;;;;;;;17.42;70.07;100201.27;137294;1202;110976;-73
2021/08/23 03:28:00;;;;;;;5.70;4.90;;;;;;;17.42;70.09;100205.67;137393;1202;97680;-72
2021/08/23 03:31:06;;;;;;;7.50;4.90;;;;;;;17.43;70.01;100196.43;137414;1201;96431;-71
2021/08/23 03:34:13;;;;;;;7.90;5.60;;;;;;;17.45;70.02;100185.36;137401;1202;108519;-70
2021/08/23 03:37:19;;;;;;;7.80;5.70;;;;;;;17.44;69.99;100181.85;137356;1202;96356;-71
2021/08/23 03:40:24;;;;;;;9.00;5.90;;;;;;;17.42;70.05;100182.11;137264;1195;110836;-72
2021/08/23 03:43:29;;;;;;;11.90;5.90;;;;;;;17.38;69.99;100186.98;137332;1202;97717;-71
2021/08/23 03:46:35;;;;;;;10.20;5.40;;;;;;;17.32;70.10;100194.38;137342;1202;96440;-71
2021/08/23 03:49:40;;;;;;;11.40;5.00;;;;;;;17.25;70.08;100193.30;137340;1202;108667;-70
2021/08/23 03:52:46;;;;;;;15.00;5.60;;;;;;;17.23;70.06;100187.77;137331;1202;97692;-71
2021/08/23 03:55:51;;;;;;;16.00;6.20;;;;;;;17.26;70.09;100190.31;137337;1202;110796;-72
2021/08/23 03:58:56;;;;;;;11.10;5.80;;;;;;;17.27;69.99;100180.33;137343;1202;96343;-72
2021/08/23 04:02:02;;;;;;;11.20;5.60;;;;;;;17.26;69.93;100176.13;137365;1202;97678;-72
2021/08/23 04:05:08;;;;;;;9.30;5.40;;;;;;;17.24;69.91;100175.61;137374;1201;108666;-71
2021/08/23 04:08:14;;;;;;;8.10;5.70;;;;;;;17.21;69.97;100172.16;137346;1202;97663;-71
2021/08/23 04:11:19;;;;;;;7.10;5.10;;;;;;;17.14;69.87;100169.95;137299;1202;110929;-73
2021/08/23 04:14:25;;;;;;;5.90;4.70;;;;;;;17.11;70.01;100162.40;137315;1195;96338;-70
2021/08/23 04:17:30;;;;;;;4.60;4.10;;;;;;;17.13;69.98;100157.89;137184;1202;96359;-72
2021/08/23 04:20:35;;;;;;;5.40;4.50;;;;;;;17.13;69.86;100154.85;137372;1202;108484;-71
2021/08/23 04:23:41;;;;;;;6.90;5.00;;;;;;;17.13;69.85;100159.33;137334;1202;96321;-72
2021/08/23 04:26:46;;;;;;;5.80;4.90;;;;;;;17.14;69.88;100170.21;137330;1201;110723;-72
2021/08/23 04:29:52;;;;;;;6.90;4.90;;;;;;;17.14;69.81;100184.77;137335;1202;97656;-71
2021/08/23 04:32:57;;;;;;;6.40;4.20;;;;;;;17.14;69.78;100195.63;137366;1202;97667;-71
2021/08/23 04:36:05;;;;;;;6.60;4.90;;;;;;;17.15;69.83;100194.27;137349;1202;108639;-71
2021/08/23 04:39:10;;;;;;;6.50;5.00;;;;;;;17.14;69.70;100185.18;137423;1201;96355;-73
2021/08/23 04:42:16;;;;;;;5.20;4.00;;;;;;;17.15;69.79;100176.55;137372;1202;110871;-73
2021/08/23 04:45:21;;;;;;;4.40;4.00;;;;;;;17.18;69.73;100168.08;137425;1195;97272;-72
2021/08/23 04:48:26;;;;;;;5.10;4.20;;;;;;;17.18;69.73;100167.08;137554;1201;96435;-73
2021/08/23 04:51:33;;;;;;;5.60;4.70;;;;;;;17.21;69.64;100168.91;137396;1201;108722;-73
2021/08/23 04:54:38;;;;;;;5.30;4.30;;;;;;;17.24;69.53;100175.66;137309;1201;97221;-74
2021/08/23 04:57:43;;;;;;;6.10;4.80;;;;;;;17.28;69.56;100186.30;137303;1201;109916;-73
2021/08/23 05:00:49;;;;;;;7.20;4.50;;;;;;;17.32;69.52;100190.31;137361;1202;96345;-73
2021/08/23 05:03:54;;;;;;;8.00;4.90;;;;;;;17.33;69.49;100186.78;137338;1201;97287;-75
2021/08/23 05:07:00;;;;;;;7.50;4.80;;;;;;;17.33;69.45;100189.36;137590;1201;108518;-72
2021/08/23 05:10:06;;;;;;;7.80;4.40;;;;;;;17.32;69.55;100187.98;137581;1201;96419;-76
2021/08/23 05:13:12;;;;;;;5.50;4.20;;;;;;;17.32;69.41;100188.04;137533;1201;111023;-75
2021/08/23 05:16:17;;;;;;;5.70;4.70;;;;;;;17.32;69.50;100187.41;137475;1201;96410;-74
2021/08/23 05:19:23;;;;;;;5.30;4.30;;;;;;;17.35;69.41;100190.52;137602;1201;96320;-74
2021/08/23 05:22:28;;;;;;;6.10;4.50;;;;;;;17.37;69.40;100193.40;137542;1201;108631;-73
2021/08/23 05:25:36;;;;;;;5.60;4.80;;;;;;;17.40;69.42;100197.00;137525;1201;96364;-73
2021/08/23 05:28:42;;;;;;;5.50;4.50;;;;;;;17.42;69.38;100194.97;137538;1201;110811;-74
2021/08/23 05:31:47;;;;;;;6.50;4.60;;;;;;;17.40;69.32;100195.80;137557;1201;96338;-73
2021/08/23 05:34:52;;;;;;;7.00;4.50;;;;;;;17.37;69.35;100200.75;137588;1195;97650;-73
2021/08/23 05:37:58;;;;;;;5.30;4.70;;;;;;;17.36;69.45;100202.00;137593;1201;108564;-79
2021/08/23 05:41:03;;;;;;;8.30;4.10;;;;;;;17.35;69.41;100200.00;137574;1202;96422;-74
2021/08/23 05:44:09;;;;;;;5.80;4.30;;;;;;;17.36;69.37;100196.48;137508;1201;110792;-73
2021/08/23 05:47:14;;;;;;;6.60;4.50;;;;;;;17.39;69.33;100192.39;137504;1201;97242;-75
2021/08/23 05:50:20;;;;;;;7.80;4.70;;;;;;;17.43;69.30;100187.96;137420;1201;96333;-74
2021/08/23 05:53:25;;;;;;;7.50;4.90;;;;;;;17.47;69.24;100195.16;137337;1202;108473;-74
2021/08/23 05:56:30;;;;;;;6.10;5.20;;;;;;;17.51;69.28;100193.11;137447;1201;96379;-73
2021/08/23 05:59:36;;;;;;;6.90;5.00;;;;;;;17.55;69.32;100196.08;137462;1201;110769;-74
2021/08/23 06:02:41;;;;;;;9.00;4.80;;;;;;;17.58;69.28;100193.14;137518;1201;96427;-74
2021/08/23 06:05:47;;;;;;;7.40;4.80;;;;;;;17.58;69.10;100195.48;137548;1201;97650;-74
2021/08/23 06:08:52;;;;;;;6.10;4.50;;;;;;;17.58;69.15;100194.27;137506;1201;108413;-74
2021/08/23 06:11:57;;;;;;;6.60;4.00;;;;;;;17.59;69.18;100199.25;137500;1201;97750;-73
2021/08/23 06:15:03;;;;;;;6.40;3.80;;;;;;;17.60;69.20;100206.39;137483;1202;111026;-74
2021/08/23 06:18:08;;;;;;;8.80;4.20;;;;;;;17.68;69.30;100204.38;137498;1201;96393;-74
2021/08/23 06:21:13;;;;;;;8.30;3.90;;;;;;;17.74;69.18;100205.74;137498;1201;97687;-74
2021/08/23 06:24:21;;;;;;;6.40;4.40;;;;;;;17.76;69.14;100202.96;137439;1201;108730;-74
2021/08/23 06:27:27;;;;;;;7.00;4.10;;;;;;;17.76;69.02;100204.89;137500;1201;96416;-72
2021/08/23 06:30:33;;;;;;;6.20;4.60;;;;;;;17.78;69.07;100205.15;137487;1201;110922;-74
2021/08/23 06:33:38;;;;;;;5.30;4.10;;;;;;;17.77;69.20;100199.23;137476;1201;97739;-72
2021/08/23 06:36:45;;;;;;;5.20;4.30;;;;;;;17.73;69.18;100200.27;137488;1202;97246;-73
2021/08/23 06:39:51;;;;;;;7.80;4.90;;;;;;;17.68;69.20;100197.66;137516;1200;108601;-74
2021/08/23 06:42:56;;;;;;;5.60;4.60;;;;;;;17.60;69.23;100191.29;137481;1201;96472;-73
2021/08/23 06:46:02;;;;;;;7.10;5.00;;;;;;;17.56;69.32;100189.05;137460;1201;109904;-73
2021/08/23 06:49:07;;;;;;;5.90;4.80;;;;;;;17.51;69.49;100186.33;137496;1202;97627;-72
2021/08/23 06:52:13;;;;;;;8.00;5.10;;;;;;;17.45;69.57;100184.58;137492;1201;97749;-72
2021/08/23 06:55:19;;;;;;;6.70;5.10;;;;;;;17.44;69.64;100181.54;137501;1201;108687;-73
2021/08/23 06:58:24;;;;;;;6.20;5.20;;;;;;;17.43;69.81;100181.64;137513;1201;97232;-74
2021/08/23 07:01:29;;;;;;;6.90;5.00;;;;;;;17.40;69.85;100181.02;137483;1195;111158;-74
2021/08/23 07:04:35;;;;;;;8.30;5.40;;;;;;;17.36;69.97;100184.52;137539;1201;97258;-74
2021/08/23 07:07:41;;;;;;;6.70;4.60;;;;;;;17.34;70.06;100188.04;137507;1201;96373;-72
2021/08/23 07:10:47;;;;;;;4.80;4.10;;;;;;;17.30;70.14;100189.13;137455;1201;108668;-73
2021/08/23 07:13:52;;;;;;;5.20;4.40;;;;;;;17.31;70.23;100187.27;137480;1201;97647;-74
2021/08/23 07:16:57;;;;;;;7.20;4.90;;;;;;;17.35;70.33;100188.73;137484;1201;110773;-74
2021/08/23 07:20:03;;;;;;;6.30;4.90;;;;;;;17.41;70.38;100191.15;137511;1202;97227;-73
2021/08/23 07:23:09;;;;;;;6.90;5.30;;;;;;;17.46;70.39;100195.98;137481;1201;97654;-73
2021/08/23 07:26:15;;;;;;;7.70;5.40;;;;;;;17.51;70.43;100197.71;137456;1201;108368;-72
2021/08/23 07:29:20;;;;;;;5.90;4.40;;;;;;;17.51;70.48;100198.20;137495;1201;96435;-73
2021/08/23 07:32:26;;;;;;;6.40;4.40;;;;;;;17.52;70.50;100199.59;137458;1201;111249;-73
2021/08/23 07:35:31;;;;;;;5.30;4.50;;;;;;;17.57;70.54;100198.86;137528;1201;97684;-72
2021/08/23 07:38:36;;;;;;;8.20;5.00;;;;;;;17.62;70.44;100199.10;137498;1201;96783;-72
2021/08/23 07:41:42;;;;;;;6.80;5.20;;;;;;;17.69;70.54;100205.89;137519;1201;108666;-72
2021/08/23 07:44:47;;;;;;;8.30;5.20;;;;;;;17.77;70.55;100204.76;137529;1201;96352;-73
2021/08/23 07:47:53;;;;;;;8.10;5.30;;;;;;;17.81;70.45;100209.34;137485;1202;109797;-71
2021/08/23 07:50:58;;;;;;;7.50;5.40;;;;;;;17.82;70.52;100204.99;137476;1201;96372;-73
2021/08/23 07:54:04;;;;;;;6.40;4.90;;;;;;;17.85;70.61;100204.70;137526;1201;96366;-72
2021/08/23 07:57:09;;;;;;;7.70;4.30;;;;;;;17.90;70.58;100205.80;137524;1201;108144;-72
2021/08/23 08:00:17;;;;;;;6.80;5.70;;;;;;;17.96;70.72;100203.04;137529;1202;96466;-73
2021/08/23 08:03:22;;;;;;;5.90;5.00;;;;;;;18.05;70.51;100205.43;137457;1201;110834;-72
2021/08/23 08:06:28;;;;;;;7.00;5.20;;;;;;;18.10;70.41;100199.63;137529;1195;97685;-75
2021/08/23 08:09:34;;;;;;;6.90;5.00;;;;;;;18.13;70.40;100200.55;137542;1200;96351;-74
2021/08/23 08:12:40;;;;;;;5.60;5.10;;;;;;;18.19;70.42;100202.02;137504;1201;107484;-74
2021/08/23 08:15:45;;;;;;;8.50;5.10;;;;;;;18.20;70.38;100206.13;137531;1201;96361;-73
2021/08/23 08:18:50;;;;;;;8.00;5.40;;;;;;;18.17;70.30;100211.08;137549;1195;110886;-73
2021/08/23 08:21:58;;;;;;;5.90;4.70;;;;;;;18.14;70.45;100210.35;137532;1197;97736;-73
2021/08/23 08:25:05;;;;;;;7.20;5.00;;;;;;;18.18;70.40;100216.02;137540;1195;97284;-73
2021/08/23 08:28:12;;;;;;;7.70;5.00;;;;;;;18.21;70.45;100213.20;137590;1201;108528;-73
2021/08/23 08:31:18;;;;;;;6.20;5.60;;;;;;;18.26;70.39;100215.66;137585;1201;97239;-73
2021/08/23 08:34:23;;;;;;;7.30;5.30;;;;;;;18.30;70.48;100220.29;137534;1201;111193;-73
2021/08/23 08:37:29;;;;;;;8.80;5.40;;;;;;;18.35;70.51;100216.89;137537;1202;97637;-73
2021/08/23 08:40:34;;;;;;;9.40;5.50;;;;;;;18.38;70.44;100218.14;137547;1202;96659;-72
2021/08/23 08:43:39;;;;;;;6.20;5.20;;;;;;;18.35;70.37;100218.14;137515;1201;108457;-73
2021/08/23 08:46:46;;;;;;;7.60;5.00;;;;;;;18.34;70.45;100223.40;137482;1201;96987;-74
2021/08/23 08:49:53;;;;;;;5.90;4.90;;;;;;;18.35;70.52;100225.77;137520;1201;110912;-73
2021/08/23 08:52:58;;;;;;;6.30;4.80;;;;;;;18.37;70.56;100229.94;137598;1201;97242;-73
2021/08/23 08:56:04;;;;;;;7.40;5.20;;;;;;;18.44;70.58;100231.54;137515;1202;97647;-73
2021/08/23 08:59:10;;;;;;;5.90;4.90;;;;;;;18.52;70.60;100233.42;137517;1201;108568;-73
2021/08/23 09:02:16;;;;;;;9.70;5.50;;;;;;;18.58;70.61;100235.34;137529;1196;97661;-72
2021/08/23 09:05:22;;;;;;;6.80;5.60;;;;;;;18.62;70.55;100234.26;137520;1201;110987;-72
2021/08/23 09:08:28;;;;;;;6.70;5.60;;;;;;;18.63;70.57;100235.63;137569;1202;96410;-73
2021/08/23 09:11:34;;;;;;;6.00;5.10;;;;;;;18.63;70.66;100235.46;137580;1201;97278;-73
2021/08/23 09:14:50;;;;;;;8.10;5.60;;;;;;;18.64;70.72;100230.02;137512;1201;108780;-74
2021/08/23 09:18:03;;;;;;;7.10;5.30;;;;;;;18.68;70.74;100231.89;137578;1201;96924;-73
2021/08/23 09:21:10;;;;;;;7.20;5.90;;;;;;;18.70;70.74;100232.02;137558;1201;110751;-73
2021/08/23 09:24:21;;;;;;;7.90;6.00;;;;;;;18.71;70.72;100228.24;137528;1196;97245;-73
2021/08/23 09:27:33;;;;;;;8.50;5.70;;;;;;;18.70;70.74;100227.61;137571;1202;96810;-74
2021/08/23 09:30:39;;;;;;;9.80;6.20;;;;;;;18.66;71.05;100230.40;137607;1195;107497;-73
2021/08/23 09:33:46;;;;;;;8.50;6.50;;;;;;;18.65;70.95;100230.07;137590;1201;96316;-72
2021/08/23 09:36:59;;;;;;;6.70;5.60;;;;;;;18.61;70.99;100229.44;137575;1201;110802;-73
2021/08/23 09:40:17;;;;;;;7.90;5.60;;;;;;;18.60;71.11;100229.39;137543;1201;96378;-73
2021/08/23 09:43:30;;;;;;;9.70;6.20;;;;;;;18.62;71.23;100230.96;137587;1201;96387;-73
2021/08/23 09:46:37;;;;;;;9.20;6.70;;;;;;;18.63;71.12;100227.41;137584;1201;108394;-73
2021/08/23 09:49:45;;;;;;;7.70;6.90;;;;;;;18.66;71.06;100228.20;137572;1201;96428;-73
2021/08/23 09:52:50;;;;;;;10.00;7.40;;;;;;;18.65;71.05;100223.41;137576;1201;110798;-73
2021/08/23 09:55:58;;;;;;;9.00;6.90;;;;;;;18.65;71.11;100228.77;137574;1201;96394;-73
2021/08/23 09:59:05;;;;;;;9.40;7.20;;;;;;;18.61;71.19;100230.52;137566;1201;96341;-73
2021/08/23 10:02:12;;;;;;;8.30;7.00;;;;;;;18.59;71.32;100231.67;137578;1195;108880;-72
2021/08/23 10:05:19;;;;;;;7.90;6.60;;;;;;;18.65;71.41;100226.27;137582;1200;96477;-72
2021/08/23 10:08:26;;;;;;;8.60;6.50;;;;;;;18.72;71.25;100226.83;137545;1201;110655;-72
2021/08/23 10:11:34;;;;;;;7.90;6.70;;;;;;;18.73;71.14;100226.41;137580;1201;96388;-72
2021/08/23 10:14:39;;;;;;;9.10;6.90;;;;;;;18.77;71.41;100228.61;137551;1201;97242;-72
2021/08/23 10:17:45;;;;;;;8.40;6.90;;;;;;;18.85;71.22;100225.95;137532;1201;108040;-73
2021/08/23 10:20:50;;;;;;;9.40;7.90;;;;;;;18.83;71.20;100222.78;137534;1201;97689;-72
2021/08/23 10:23:57;;;;;;;8.30;7.00;;;;;;;18.84;71.31;100228.44;137527;1201;110867;-73
2021/08/23 10:27:02;;;;;;;9.80;6.70;;;;;;;18.83;71.19;100225.98;137591;1202;96495;-72
2021/08/23 10:30:20;;;;;;;7.10;5.80;;;;;;;18.82;71.33;100223.65;137555;1202;96444;-72
2021/08/23 10:33:37;;;;;;;8.90;7.00;;;;;;;18.81;71.44;100222.23;137557;1201;108858;-72
2021/08/23 10:36:44;;;;;;;9.50;7.30;;;;;;;18.85;71.42;100227.40;137580;1201;97676;-73
2021/08/23 10:40:00;;;;;;;9.90;7.10;;;;;;;18.85;71.33;100228.30;137517;1201;110658;-73
2021/08/23 10:43:17;;;;;;;8.80;7.40;;;;;;;18.85;71.61;100224.70;137566;1201;96330;-73
2021/08/23 10:46:27;;;;;;;10.20;7.10;;;;;;;18.82;71.50;100228.31;137568;1201;97630;-72
2021/08/23 10:49:41;;;;;;;7.80;6.70;;;;;;;18.78;71.51;100228.16;137545;1201;109184;-74
2021/08/23 10:52:48;;;;;;;8.10;6.60;;;;;;;18.76;71.68;100223.59;137518;1201;97256;-74
2021/08/23 10:55:54;;;;;;;8.50;6.60;;;;;;;18.79;71.83;100223.43;137662;1200;110236;-74
2021/08/23 10:59:11;;;;;;;9.40;7.10;;;;;;;18.78;71.73;100222.17;137615;1201;96357;-72
2021/08/23 11:02:31;;;;;;;8.10;7.00;;;;;;;18.77;71.81;100223.00;137477;1202;96335;-73
2021/08/23 11:05:37;;;;;;;7.60;6.90;;;;;;;18.74;71.85;100223.66;137500;1202;108101;-72
2021/08/23 11:08:43;;;;;;;8.80;7.60;;;;;;;18.74;71.96;100224.54;137435;1203;96329;-73
2021/08/23 11:11:48;;;;;;;8.50;7.00;;;;;;;18.75;72.07;100223.41;137494;1202;109350;-73
2021/08/23 11:14:55;;;;;;;8.60;7.50;;;;;;;18.76;72.02;100216.80;137496;1202;96394;-73
2021/08/23 11:18:05;;;;;;;9.40;7.70;;;;;;;18.75;71.92;100216.92;137557;1201;96302;-74
2021/08/23 11:21:17;;;;;;;10.20;7.80;;;;;;;18.73;72.03;100210.06;137544;1201;108509;-73
2021/08/23 11:24:22;;;;;;;12.10;8.90;;;;;;;18.73;72.20;100209.81;137646;1201;96405;-74
2021/08/23 11:27:28;;;;;;;10.00;8.70;;;;;;;18.75;72.43;100207.57;137484;1200;110873;-76
2021/08/23 11:30:35;;;;;;;9.60;8.60;;;;;;;18.69;72.34;100204.24;137532;1202;97637;-73
2021/08/23 11:33:41;;;;;;;10.10;7.90;;;;;;;18.70;72.41;100203.63;137539;1201;96317;-72
2021/08/23 11:36:47;;;;;;;10.60;8.30;;;;;;;18.74;72.51;100200.79;137501;1196;108036;-73
2021/08/23 11:40:03;;;;;;;11.40;9.10;;;;;;;18.72;72.46;100201.41;137514;1196;97647;-74
2021/08/23 11:43:09;;;;;;;11.90;9.40;;;;;;;18.69;72.61;100198.39;137532;1201;111270;-72
2021/08/23 11:46:15;;;;;;;11.20;9.40;;;;;;;18.70;72.83;100197.21;137520;1201;96317;-71
2021/08/23 11:49:31;;;;;;;9.60;8.60;;;;;;;18.68;72.89;100196.51;137536;1201;97755;-71
2021/08/23 11:52:36;;;;;;;9.90;8.20;;;;;;;18.56;72.88;100197.87;137506;1201;108571;-72
2021/08/23 11:55:44;;;;;;;8.50;7.30;;;;;;;18.44;73.01;100198.91;137456;1195;97632;-73
2021/08/23 11:58:49;;;;;;;8.70;7.20;;;;;;;18.42;73.01;100197.20;137488;1201;110980;-74
2021/08/23 12:01:55;;;;;;;8.80;7.60;;;;;;;18.40;73.06;100195.36;137530;1201;97239;-72
2021/08/23 12:05:17;;;;;;;9.40;7.90;;;;;;;18.42;73.11;100194.54;137533;1194;97630;-73
2021/08/23 12:08:27;;;;;;;9.50;8.00;;;;;;;18.45;73.05;100196.11;137544;1201;108532;-74
2021/08/23 12:11:45;;;;;;;10.60;8.70;;;;;;;18.47;73.07;100191.60;137513;1195;96362;-73
2021/08/23 12:15:00;;;;;;;8.30;7.10;;;;;;;18.49;73.20;100195.51;137528;1201;110074;-73
2021/08/23 12:18:12;;;;;;;7.80;6.90;;;;;;;18.50;73.23;100191.96;137502;1201;96351;-73
2021/08/23 12:21:20;;;;;;;7.70;6.90;;;;;;;18.49;73.31;100188.11;137538;1201;97689;-73
2021/08/23 12:24:26;;;;;;;9.30;8.30;;;;;;;18.46;73.34;100190.45;137522;1201;108649;-73
2021/08/23 12:27:32;;;;;;;9.40;8.10;;;;;;;18.40;73.45;100189.23;137474;1201;97262;-71
2021/08/23 12:30:37;;;;;;;10.10;8.10;;;;;;;18.37;73.58;100186.80;137454;1201;110799;-72
2021/08/23 12:33:43;;;;;;;10.70;8.70;;;;;;;18.36;73.65;100183.73;137475;1201;96406;-72
2021/08/23 12:36:49;;;;;;;10.00;8.10;;;;;;;18.34;73.80;100182.14;137487;1201;96324;-73
2021/08/23 12:39:54;;;;;;;10.20;8.70;;;;;;;18.32;74.04;100178.65;137421;1201;108644;-73
2021/08/23 12:43:00;;;;;;;10.60;9.20;;;;;;;18.31;74.05;100177.36;137423;1201;97054;-73
2021/08/23 12:46:06;;;;;;;10.80;9.10;;;;;;;18.31;73.97;100175.90;137474;1201;110963;-74
2021/08/23 12:49:12;;;;;;;10.70;8.80;;;;;;;18.31;74.09;100180.02;137489;1201;97371;-74
2021/08/23 12:52:17;;;;;;;8.70;7.40;;;;;;;18.20;74.04;100174.55;137428;1201;96361;-74
2021/08/23 12:55:23;;;;;;;9.60;7.70;;;;;;;18.16;74.51;100173.67;137484;1201;108699;-75
2021/08/23 12:58:28;;;;;;;10.30;7.10;;;;;;;18.13;74.26;100175.45;137508;1201;96421;-74
2021/08/23 13:01:35;;;;;;;9.10;7.10;;;;;;;18.15;74.43;100179.11;137420;1201;110875;-73
2021/08/23 13:04:41;;;;;;;9.60;7.40;;;;;;;18.16;74.56;100176.59;137481;1201;96402;-73
2021/08/23 13:07:46;;;;;;;8.40;7.40;;;;;;;18.10;74.67;100168.80;137462;1201;97017;-73
2021/08/23 13:10:52;;;;;;;7.40;6.10;;;;;;;17.99;74.94;100163.55;137433;1201;108526;-73
2021/08/23 13:13:57;;;;;;;8.30;6.00;;;;;;;17.88;74.88;100167.00;137458;1201;96401;-73
2021/08/23 13:17:03;;;;;;;7.60;6.80;;;;;;;17.88;75.09;100167.17;137400;1201;109797;-73
2021/08/23 13:20:10;;;;;;;9.30;7.40;;;;;;;17.93;75.10;100161.54;137419;1201;97777;-73
2021/08/23 13:23:16;;;;;;;9.20;7.30;;;;;;;17.97;74.99;100154.64;137481;1200;97653;-73
2021/08/23 13:26:22;;;;;;;7.50;6.40;;;;;;;17.97;75.08;100151.41;137401;1201;107789;-73
2021/08/23 13:29:28;;;;;;;6.90;5.90;;;;;;;17.97;75.16;100152.12;137490;1201;97672;-75
2021/08/23 13:32:33;;;;;;;8.00;6.10;;;;;;;18.00;75.29;100152.63;137467;1195;110764;-73
2021/08/23 13:35:41;;;;;;;6.90;6.20;;;;;;;18.03;75.48;100154.34;137479;1201;97278;-74
2021/08/23 13:38:46;;;;;;;7.80;6.90;;;;;;;18.04;75.42;100156.91;137463;1201;97302;-74
2021/08/23 13:41:51;;;;;;;8.10;6.90;;;;;;;18.04;75.50;100151.02;137352;1195;107467;-73
2021/08/23 13:44:57;;;;;;;6.70;6.00;;;;;;;18.04;75.56;100152.05;137339;1201;96491;-74
2021/08/23 13:48:02;;;;;;;7.10;5.60;;;;;;;18.07;75.47;100147.64;137313;1201;111053;-74
2021/08/23 13:51:08;;;;;;;7.00;6.20;;;;;;;18.09;75.56;100150.28;137419;1201;96324;-72
2021/08/23 13:54:14;;;;;;;7.20;6.40;;;;;;;18.11;75.71;100146.49;137427;1201;97705;-73
2021/08/23 13:57:19;;;;;;;7.60;6.80;;;;;;;18.15;75.73;100146.74;137327;1201;108536;-73
2021/08/23 14:00:25;;;;;;;7.10;6.10;;;;;;;18.17;75.87;100142.68;137372;1201;96428;-72
2021/08/23 14:03:30;;;;;;;6.30;5.50;;;;;;;18.16;76.30;100145.30;137397;1201;111222;-73
2021/08/23 14:06:36;;;;;;;6.20;5.60;;;;;;;18.15;75.99;100145.25;137503;1195;96306;-71
2021/08/23 14:09:41;;;;;;;6.80;6.10;;;;;;;18.21;76.03;100143.77;137560;1195;96394;-73
2021/08/23 14:12:46;;;;;;;7.40;6.70;;;;;;;18.24;76.18;100136.78;137372;1201;108550;-70
2021/08/23 14:15:52;;;;;;;6.70;5.70;;;;;;;18.26;76.04;100132.55;137362;1195;96785;-70